sensor_id;sensor_type;location;lat;lon;timestamp;P1;durP1;ratioP1;P2;durP2;ratioP2
479;SDS011;226;48.606;9.096;2023-05-20T00:02:26;5.97;;;4.33;;
479;SDS011;226;48.606;9.096;2023-05-20T00:04:54;7.73;;;5.30;;
479;SDS011;226;48.606;9.096;2023-05-20T00:07:23;5.93;;;4.10;;
479;SDS011;226;48.606;9.096;2023-05-20T00:09:51;11.83;;;5.40;;
479;SDS011;226;48.606;9.096;2023-05-20T00:12:20;6.80;;;4.73;;
479;SDS011;226;48.606;9.096;2023-05-20T00:14:48;6.47;;;4.93;;
479;SDS011;226;48.606;9.096;2023-05-20T00:17:20;7.03;;;4.53;;
479;SDS011;226;48.606;9.096;2023-05-20T00:19:49;7.43;;;4.43;;
479;SDS011;226;48.606;9.096;2023-05-20T00:22:17;6.00;;;4.17;;
479;SDS011;226;48.606;9.096;2023-05-20T00:24:46;9.70;;;5.00;;
479;SDS011;226;48.606;9.096;2023-05-20T00:27:14;7.03;;;4.87;;
479;SDS011;226;48.606;9.096;2023-05-20T00:29:42;8.17;;;4.30;;
479;SDS011;226;48.606;9.096;2023-05-20T00:32:11;4.07;;;3.67;;
479;SDS011;226;48.606;9.096;2023-05-20T00:34:41;9.10;;;5.33;;
479;SDS011;226;48.606;9.096;2023-05-20T00:37:10;6.87;;;4.10;;
479;SDS011;226;48.606;9.096;2023-05-20T00:39:38;5.93;;;4.27;;
479;SDS011;226;48.606;9.096;2023-05-20T00:42:07;6.17;;;4.30;;
479;SDS011;226;48.606;9.096;2023-05-20T00:44:35;8.20;;;5.00;;
479;SDS011;226;48.606;9.096;2023-05-20T00:47:04;6.80;;;5.07;;
479;SDS011;226;48.606;9.096;2023-05-20T00:49:32;10.37;;;4.60;;
479;SDS011;226;48.606;9.096;2023-05-20T00:52:02;7.30;;;5.40;;
479;SDS011;226;48.606;9.096;2023-05-20T00:54:30;8.10;;;4.67;;
479;SDS011;226;48.606;9.096;2023-05-20T00:56:59;7.80;;;3.90;;
479;SDS011;226;48.606;9.096;2023-05-20T00:59:28;5.63;;;4.60;;
479;SDS011;226;48.606;9.096;2023-05-20T01:01:56;5.33;;;3.97;;
479;SDS011;226;48.606;9.096;2023-05-20T01:04:25;7.43;;;4.13;;
479;SDS011;226;48.606;9.096;2023-05-20T01:06:53;6.97;;;4.93;;
479;SDS011;226;48.606;9.096;2023-05-20T01:09:24;5.87;;;3.97;;
479;SDS011;226;48.606;9.096;2023-05-20T01:11:53;6.77;;;5.07;;
479;SDS011;226;48.606;9.096;2023-05-20T01:14:23;4.70;;;4.30;;
479;SDS011;226;48.606;9.096;2023-05-20T01:16:53;5.53;;;4.30;;
479;SDS011;226;48.606;9.096;2023-05-20T01:19:26;9.97;;;5.23;;
479;SDS011;226;48.606;9.096;2023-05-20T01:21:59;6.57;;;5.70;;
479;SDS011;226;48.606;9.096;2023-05-20T01:24:29;8.13;;;4.30;;
479;SDS011;226;48.606;9.096;2023-05-20T01:26:58;6.87;;;4.70;;
479;SDS011;226;48.606;9.096;2023-05-20T01:29:26;9.27;;;4.63;;
479;SDS011;226;48.606;9.096;2023-05-20T01:31:54;6.80;;;4.73;;
479;SDS011;226;48.606;9.096;2023-05-20T01:34:24;7.63;;;4.10;;
479;SDS011;226;48.606;9.096;2023-05-20T01:36:52;7.10;;;4.43;;
479;SDS011;226;48.606;9.096;2023-05-20T01:39:21;10.37;;;5.17;;
479;SDS011;226;48.606;9.096;2023-05-20T01:41:52;4.77;;;4.33;;
479;SDS011;226;48.606;9.096;2023-05-20T01:44:21;5.80;;;4.20;;
479;SDS011;226;48.606;9.096;2023-05-20T01:46:49;8.57;;;4.87;;
479;SDS011;226;48.606;9.096;2023-05-20T01:49:18;16.97;;;5.03;;
479;SDS011;226;48.606;9.096;2023-05-20T01:51:46;5.90;;;4.93;;
479;SDS011;226;48.606;9.096;2023-05-20T01:54:15;6.47;;;4.90;;
479;SDS011;226;48.606;9.096;2023-05-20T01:56:44;6.50;;;4.07;;
479;SDS011;226;48.606;9.096;2023-05-20T01:59:14;4.60;;;4.17;;
479;SDS011;226;48.606;9.096;2023-05-20T02:01:42;17.63;;;5.43;;
479;SDS011;226;48.606;9.096;2023-05-20T02:04:11;5.93;;;4.83;;
479;SDS011;226;48.606;9.096;2023-05-20T02:06:40;8.33;;;4.10;;
479;SDS011;226;48.606;9.096;2023-05-20T02:09:08;6.10;;;4.30;;
479;SDS011;226;48.606;9.096;2023-05-20T02:11:36;6.50;;;4.67;;
479;SDS011;226;48.606;9.096;2023-05-20T02:14:05;8.40;;;5.20;;
479;SDS011;226;48.606;9.096;2023-05-20T02:16:35;10.60;;;5.97;;
479;SDS011;226;48.606;9.096;2023-05-20T02:19:03;5.63;;;4.80;;
479;SDS011;226;48.606;9.096;2023-05-20T02:21:38;11.87;;;4.70;;
479;SDS011;226;48.606;9.096;2023-05-20T02:24:06;6.10;;;4.20;;
479;SDS011;226;48.606;9.096;2023-05-20T02:26:35;5.40;;;4.07;;
479;SDS011;226;48.606;9.096;2023-05-20T02:29:03;9.10;;;5.93;;
479;SDS011;226;48.606;9.096;2023-05-20T02:31:32;6.80;;;4.90;;
479;SDS011;226;48.606;9.096;2023-05-20T02:34:01;7.67;;;4.70;;
479;SDS011;226;48.606;9.096;2023-05-20T02:36:30;10.17;;;4.80;;
479;SDS011;226;48.606;9.096;2023-05-20T02:38:59;6.93;;;4.50;;
479;SDS011;226;48.606;9.096;2023-05-20T02:41:27;5.27;;;4.40;;
479;SDS011;226;48.606;9.096;2023-05-20T02:43:56;5.80;;;5.20;;
479;SDS011;226;48.606;9.096;2023-05-20T02:46:24;7.17;;;4.77;;
479;SDS011;226;48.606;9.096;2023-05-20T02:48:52;4.80;;;4.40;;
479;SDS011;226;48.606;9.096;2023-05-20T02:51:22;6.40;;;4.70;;
479;SDS011;226;48.606;9.096;2023-05-20T02:53:51;6.40;;;4.90;;
479;SDS011;226;48.606;9.096;2023-05-20T02:56:19;7.70;;;4.77;;
479;SDS011;226;48.606;9.096;2023-05-20T02:58:47;7.60;;;4.47;;
479;SDS011;226;48.606;9.096;2023-05-20T03:01:16;6.30;;;4.37;;
479;SDS011;226;48.606;9.096;2023-05-20T03:03:44;10.17;;;5.87;;
479;SDS011;226;48.606;9.096;2023-05-20T03:06:13;7.53;;;4.97;;
479;SDS011;226;48.606;9.096;2023-05-20T03:08:43;10.43;;;4.70;;
479;SDS011;226;48.606;9.096;2023-05-20T03:11:11;8.63;;;5.37;;
479;SDS011;226;48.606;9.096;2023-05-20T03:13:39;6.50;;;5.07;;
479;SDS011;226;48.606;9.096;2023-05-20T03:16:08;5.90;;;4.73;;
479;SDS011;226;48.606;9.096;2023-05-20T03:18:38;8.73;;;4.90;;
479;SDS011;226;48.606;9.096;2023-05-20T03:21:07;5.77;;;4.73;;
479;SDS011;226;48.606;9.096;2023-05-20T03:23:35;8.80;;;5.67;;
479;SDS011;226;48.606;9.096;2023-05-20T03:26:05;6.30;;;4.37;;
479;SDS011;226;48.606;9.096;2023-05-20T03:28:34;7.30;;;4.27;;
479;SDS011;226;48.606;9.096;2023-05-20T03:31:03;8.30;;;5.60;;
479;SDS011;226;48.606;9.096;2023-05-20T03:33:32;5.43;;;4.40;;
479;SDS011;226;48.606;9.096;2023-05-20T03:36:00;7.40;;;5.57;;
479;SDS011;226;48.606;9.096;2023-05-20T03:38:29;5.57;;;4.80;;
479;SDS011;226;48.606;9.096;2023-05-20T03:40:57;10.53;;;5.17;;
479;SDS011;226;48.606;9.096;2023-05-20T03:43:27;10.17;;;4.30;;
479;SDS011;226;48.606;9.096;2023-05-20T03:45:56;5.00;;;4.07;;
479;SDS011;226;48.606;9.096;2023-05-20T03:48:24;5.87;;;4.63;;
479;SDS011;226;48.606;9.096;2023-05-20T03:50:52;9.90;;;5.67;;
479;SDS011;226;48.606;9.096;2023-05-20T03:53:21;8.97;;;5.90;;
479;SDS011;226;48.606;9.096;2023-05-20T03:55:49;9.40;;;5.27;;
479;SDS011;226;48.606;9.096;2023-05-20T03:58:18;5.03;;;4.33;;
479;SDS011;226;48.606;9.096;2023-05-20T04:00:49;7.97;;;6.40;;
479;SDS011;226;48.606;9.096;2023-05-20T04:03:17;7.03;;;5.27;;
479;SDS011;226;48.606;9.096;2023-05-20T04:05:45;7.80;;;5.40;;
479;SDS011;226;48.606;9.096;2023-05-20T04:08:14;5.30;;;4.80;;
479;SDS011;226;48.606;9.096;2023-05-20T04:10:44;5.60;;;4.43;;
479;SDS011;226;48.606;9.096;2023-05-20T04:13:13;10.23;;;4.63;;
479;SDS011;226;48.606;9.096;2023-05-20T04:15:42;6.47;;;5.60;;
479;SDS011;226;48.606;9.096;2023-05-20T04:18:12;5.37;;;4.13;;
479;SDS011;226;48.606;9.096;2023-05-20T04:20:40;5.73;;;4.20;;
479;SDS011;226;48.606;9.096;2023-05-20T04:23:08;8.13;;;5.03;;
479;SDS011;226;48.606;9.096;2023-05-20T04:25:37;6.70;;;5.17;;
479;SDS011;226;48.606;9.096;2023-05-20T04:28:06;7.53;;;6.30;;
479;SDS011;226;48.606;9.096;2023-05-20T04:30:36;6.90;;;5.37;;
479;SDS011;226;48.606;9.096;2023-05-20T04:33:04;6.70;;;4.70;;
479;SDS011;226;48.606;9.096;2023-05-20T04:35:34;5.27;;;4.77;;
479;SDS011;226;48.606;9.096;2023-05-20T04:38:06;6.53;;;5.10;;
479;SDS011;226;48.606;9.096;2023-05-20T04:40:35;17.70;;;5.83;;
479;SDS011;226;48.606;9.096;2023-05-20T04:43:04;11.90;;;7.13;;
479;SDS011;226;48.606;9.096;2023-05-20T04:45:32;14.17;;;6.07;;
479;SDS011;226;48.606;9.096;2023-05-20T04:48:01;10.47;;;6.70;;
479;SDS011;226;48.606;9.096;2023-05-20T04:50:31;15.90;;;5.80;;
479;SDS011;226;48.606;9.096;2023-05-20T04:53:01;18.17;;;6.43;;
479;SDS011;226;48.606;9.096;2023-05-20T04:55:29;11.43;;;6.47;;
479;SDS011;226;48.606;9.096;2023-05-20T04:57:58;9.53;;;6.17;;
479;SDS011;226;48.606;9.096;2023-05-20T05:00:27;15.00;;;6.00;;
479;SDS011;226;48.606;9.096;2023-05-20T05:02:55;10.53;;;6.63;;
479;SDS011;226;48.606;9.096;2023-05-20T05:05:24;7.70;;;6.03;;
479;SDS011;226;48.606;9.096;2023-05-20T05:07:52;12.70;;;6.13;;
479;SDS011;226;48.606;9.096;2023-05-20T05:10:22;5.90;;;5.00;;
479;SDS011;226;48.606;9.096;2023-05-20T05:12:50;7.77;;;6.00;;
479;SDS011;226;48.606;9.096;2023-05-20T05:15:19;8.43;;;4.87;;
479;SDS011;226;48.606;9.096;2023-05-20T05:17:48;7.23;;;5.27;;
479;SDS011;226;48.606;9.096;2023-05-20T05:20:17;5.60;;;4.90;;
479;SDS011;226;48.606;9.096;2023-05-20T05:22:45;8.73;;;5.40;;
479;SDS011;226;48.606;9.096;2023-05-20T05:25:15;7.23;;;4.70;;
479;SDS011;226;48.606;9.096;2023-05-20T05:27:45;11.70;;;5.17;;
479;SDS011;226;48.606;9.096;2023-05-20T05:30:14;6.67;;;5.97;;
479;SDS011;226;48.606;9.096;2023-05-20T05:32:43;8.53;;;4.83;;
479;SDS011;226;48.606;9.096;2023-05-20T05:35:12;10.77;;;4.97;;
479;SDS011;226;48.606;9.096;2023-05-20T05:37:40;5.63;;;4.90;;
479;SDS011;226;48.606;9.096;2023-05-20T05:40:09;9.40;;;6.37;;
479;SDS011;226;48.606;9.096;2023-05-20T05:42:37;6.30;;;4.97;;
479;SDS011;226;48.606;9.096;2023-05-20T05:45:08;9.07;;;5.93;;
479;SDS011;226;48.606;9.096;2023-05-20T05:47:37;7.63;;;4.87;;
479;SDS011;226;48.606;9.096;2023-05-20T05:50:06;8.13;;;5.17;;
479;SDS011;226;48.606;9.096;2023-05-20T05:52:35;6.87;;;5.60;;
479;SDS011;226;48.606;9.096;2023-05-20T05:55:04;6.90;;;4.90;;
479;SDS011;226;48.606;9.096;2023-05-20T05:57:32;7.50;;;4.70;;
479;SDS011;226;48.606;9.096;2023-05-20T06:00:00;8.13;;;5.00;;
479;SDS011;226;48.606;9.096;2023-05-20T06:02:31;9.03;;;4.57;;
479;SDS011;226;48.606;9.096;2023-05-20T06:05:01;9.10;;;5.30;;
479;SDS011;226;48.606;9.096;2023-05-20T06:07:30;6.87;;;5.00;;
479;SDS011;226;48.606;9.096;2023-05-20T06:09:58;7.00;;;5.30;;
479;SDS011;226;48.606;9.096;2023-05-20T06:12:27;7.80;;;6.13;;
479;SDS011;226;48.606;9.096;2023-05-20T06:14:55;9.33;;;4.80;;
479;SDS011;226;48.606;9.096;2023-05-20T06:17:24;8.30;;;5.30;;
479;SDS011;226;48.606;9.096;2023-05-20T06:19:54;8.23;;;4.97;;
479;SDS011;226;48.606;9.096;2023-05-20T06:22:22;9.43;;;5.40;;
479;SDS011;226;48.606;9.096;2023-05-20T06:24:52;7.10;;;5.53;;
479;SDS011;226;48.606;9.096;2023-05-20T06:27:21;8.90;;;4.77;;
479;SDS011;226;48.606;9.096;2023-05-20T06:29:50;5.70;;;4.27;;
479;SDS011;226;48.606;9.096;2023-05-20T06:32:18;13.60;;;5.60;;
479;SDS011;226;48.606;9.096;2023-05-20T06:34:47;8.53;;;4.53;;
479;SDS011;226;48.606;9.096;2023-05-20T06:37:16;8.70;;;5.80;;
479;SDS011;226;48.606;9.096;2023-05-20T06:39:45;7.83;;;5.37;;
479;SDS011;226;48.606;9.096;2023-05-20T06:42:19;8.85;;;5.00;;
479;SDS011;226;48.606;9.096;2023-05-20T06:44:47;7.40;;;4.03;;
479;SDS011;226;48.606;9.096;2023-05-20T06:47:16;11.53;;;5.07;;
479;SDS011;226;48.606;9.096;2023-05-20T06:49:44;7.60;;;4.90;;
479;SDS011;226;48.606;9.096;2023-05-20T06:52:13;8.90;;;4.87;;
479;SDS011;226;48.606;9.096;2023-05-20T06:54:42;13.03;;;5.33;;
479;SDS011;226;48.606;9.096;2023-05-20T06:57:11;9.20;;;5.77;;
479;SDS011;226;48.606;9.096;2023-05-20T06:59:39;9.93;;;5.77;;
479;SDS011;226;48.606;9.096;2023-05-20T07:02:08;6.47;;;4.57;;
479;SDS011;226;48.606;9.096;2023-05-20T07:04:36;15.90;;;5.37;;
479;SDS011;226;48.606;9.096;2023-05-20T07:07:05;13.27;;;6.20;;
479;SDS011;226;48.606;9.096;2023-05-20T07:09:33;7.00;;;4.63;;
479;SDS011;226;48.606;9.096;2023-05-20T07:12:03;7.47;;;4.93;;
479;SDS011;226;48.606;9.096;2023-05-20T07:14:31;8.93;;;4.80;;
479;SDS011;226;48.606;9.096;2023-05-20T07:17:00;6.30;;;4.17;;
479;SDS011;226;48.606;9.096;2023-05-20T07:19:28;6.10;;;4.90;;
479;SDS011;226;48.606;9.096;2023-05-20T07:21:56;6.37;;;5.23;;
479;SDS011;226;48.606;9.096;2023-05-20T07:24:25;8.50;;;5.43;;
479;SDS011;226;48.606;9.096;2023-05-20T07:26:53;6.03;;;4.43;;
479;SDS011;226;48.606;9.096;2023-05-20T07:29:23;9.47;;;4.77;;
479;SDS011;226;48.606;9.096;2023-05-20T07:31:52;8.43;;;4.57;;
479;SDS011;226;48.606;9.096;2023-05-20T07:34:20;9.70;;;5.55;;
479;SDS011;226;48.606;9.096;2023-05-20T07:36:49;6.87;;;5.10;;
479;SDS011;226;48.606;9.096;2023-05-20T07:39:18;7.23;;;5.23;;
479;SDS011;226;48.606;9.096;2023-05-20T07:41:46;12.30;;;5.33;;
479;SDS011;226;48.606;9.096;2023-05-20T07:44:15;8.30;;;4.60;;
479;SDS011;226;48.606;9.096;2023-05-20T07:46:48;10.93;;;5.40;;
479;SDS011;226;48.606;9.096;2023-05-20T07:49:16;12.03;;;5.87;;
479;SDS011;226;48.606;9.096;2023-05-20T07:51:45;10.70;;;4.97;;
479;SDS011;226;48.606;9.096;2023-05-20T07:54:13;10.13;;;6.30;;
479;SDS011;226;48.606;9.096;2023-05-20T07:56:41;8.37;;;5.37;;
479;SDS011;226;48.606;9.096;2023-05-20T07:59:10;10.07;;;5.87;;
479;SDS011;226;48.606;9.096;2023-05-20T08:01:39;8.10;;;5.23;;
479;SDS011;226;48.606;9.096;2023-05-20T08:04:09;10.70;;;5.47;;
479;SDS011;226;48.606;9.096;2023-05-20T08:06:38;10.37;;;5.23;;
479;SDS011;226;48.606;9.096;2023-05-20T08:09:08;10.77;;;5.10;;
479;SDS011;226;48.606;9.096;2023-05-20T08:11:37;9.57;;;5.20;;
479;SDS011;226;48.606;9.096;2023-05-20T08:14:05;7.60;;;5.10;;
479;SDS011;226;48.606;9.096;2023-05-20T08:16:34;8.37;;;5.03;;
479;SDS011;226;48.606;9.096;2023-05-20T08:19:03;9.33;;;5.33;;
479;SDS011;226;48.606;9.096;2023-05-20T08:21:33;10.53;;;4.93;;
479;SDS011;226;48.606;9.096;2023-05-20T08:24:03;8.43;;;5.43;;
479;SDS011;226;48.606;9.096;2023-05-20T08:26:31;10.40;;;5.70;;
479;SDS011;226;48.606;9.096;2023-05-20T08:29:00;4.87;;;4.33;;
479;SDS011;226;48.606;9.096;2023-05-20T08:31:28;13.23;;;5.57;;
479;SDS011;226;48.606;9.096;2023-05-20T08:33:57;8.20;;;4.50;;
479;SDS011;226;48.606;9.096;2023-05-20T08:36:25;9.30;;;4.40;;
479;SDS011;226;48.606;9.096;2023-05-20T08:38:55;9.97;;;5.43;;
479;SDS011;226;48.606;9.096;2023-05-20T08:41:25;10.00;;;5.37;;
479;SDS011;226;48.606;9.096;2023-05-20T08:43:53;7.13;;;5.40;;
479;SDS011;226;48.606;9.096;2023-05-20T08:46:22;13.07;;;5.47;;
479;SDS011;226;48.606;9.096;2023-05-20T08:48:50;8.40;;;4.83;;
479;SDS011;226;48.606;9.096;2023-05-20T08:51:19;8.97;;;5.53;;
479;SDS011;226;48.606;9.096;2023-05-20T08:53:49;8.07;;;5.13;;
479;SDS011;226;48.606;9.096;2023-05-20T08:56:19;8.27;;;5.60;;
479;SDS011;226;48.606;9.096;2023-05-20T08:58:49;7.10;;;4.90;;
479;SDS011;226;48.606;9.096;2023-05-20T09:01:17;9.17;;;5.03;;
479;SDS011;226;48.606;9.096;2023-05-20T09:03:46;11.10;;;5.73;;
479;SDS011;226;48.606;9.096;2023-05-20T09:06:15;6.70;;;4.80;;
479;SDS011;226;48.606;9.096;2023-05-20T09:08:47;17.20;;;5.50;;
479;SDS011;226;48.606;9.096;2023-05-20T09:11:16;6.73;;;4.33;;
479;SDS011;226;48.606;9.096;2023-05-20T09:13:45;8.27;;;4.73;;
479;SDS011;226;48.606;9.096;2023-05-20T09:16:14;9.97;;;5.30;;
479;SDS011;226;48.606;9.096;2023-05-20T09:18:43;7.20;;;4.70;;
479;SDS011;226;48.606;9.096;2023-05-20T09:21:11;8.20;;;4.60;;
479;SDS011;226;48.606;9.096;2023-05-20T09:23:40;9.10;;;5.20;;
479;SDS011;226;48.606;9.096;2023-05-20T09:26:14;6.97;;;4.70;;
479;SDS011;226;48.606;9.096;2023-05-20T09:28:46;8.53;;;5.13;;
479;SDS011;226;48.606;9.096;2023-05-20T09:31:14;10.00;;;5.23;;
479;SDS011;226;48.606;9.096;2023-05-20T09:33:43;7.30;;;4.53;;
479;SDS011;226;48.606;9.096;2023-05-20T09:36:12;7.80;;;4.43;;
479;SDS011;226;48.606;9.096;2023-05-20T09:38:42;8.27;;;4.70;;
479;SDS011;226;48.606;9.096;2023-05-20T09:41:12;5.17;;;3.90;;
479;SDS011;226;48.606;9.096;2023-05-20T09:43:43;7.60;;;5.53;;
479;SDS011;226;48.606;9.096;2023-05-20T09:46:13;9.17;;;5.27;;
479;SDS011;226;48.606;9.096;2023-05-20T09:48:42;12.20;;;6.20;;
479;SDS011;226;48.606;9.096;2023-05-20T09:51:11;8.67;;;5.23;;
479;SDS011;226;48.606;9.096;2023-05-20T09:53:40;7.37;;;5.33;;
479;SDS011;226;48.606;9.096;2023-05-20T09:56:09;6.70;;;4.90;;
479;SDS011;226;48.606;9.096;2023-05-20T09:58:38;5.73;;;4.57;;
479;SDS011;226;48.606;9.096;2023-05-20T10:01:07;10.30;;;5.10;;
479;SDS011;226;48.606;9.096;2023-05-20T10:03:37;6.57;;;4.93;;
479;SDS011;226;48.606;9.096;2023-05-20T10:06:16;20.67;;;5.13;;
479;SDS011;226;48.606;9.096;2023-05-20T10:11:32;6.90;;;4.60;;
479;SDS011;226;48.606;9.096;2023-05-20T10:14:08;8.30;;;4.93;;
479;SDS011;226;48.606;9.096;2023-05-20T10:16:43;10.13;;;4.37;;
479;SDS011;226;48.606;9.096;2023-05-20T10:19:17;10.20;;;5.20;;
479;SDS011;226;48.606;9.096;2023-05-20T10:21:55;11.10;;;4.30;;
479;SDS011;226;48.606;9.096;2023-05-20T10:24:31;7.07;;;4.10;;
479;SDS011;226;48.606;9.096;2023-05-20T10:27:00;9.50;;;4.87;;
479;SDS011;226;48.606;9.096;2023-05-20T10:29:29;6.70;;;4.07;;
479;SDS011;226;48.606;9.096;2023-05-20T10:31:57;6.57;;;4.53;;
479;SDS011;226;48.606;9.096;2023-05-20T10:34:28;7.93;;;5.50;;
479;SDS011;226;48.606;9.096;2023-05-20T10:37:19;8.43;;;4.90;;
479;SDS011;226;48.606;9.096;2023-05-20T10:39:48;8.07;;;5.10;;
479;SDS011;226;48.606;9.096;2023-05-20T10:42:16;5.77;;;4.40;;
479;SDS011;226;48.606;9.096;2023-05-20T10:44:54;7.10;;;4.50;;
479;SDS011;226;48.606;9.096;2023-05-20T10:47:23;7.93;;;4.80;;
479;SDS011;226;48.606;9.096;2023-05-20T10:49:53;9.03;;;3.87;;
479;SDS011;226;48.606;9.096;2023-05-20T10:52:21;4.67;;;4.00;;
479;SDS011;226;48.606;9.096;2023-05-20T10:54:54;6.90;;;4.40;;
479;SDS011;226;48.606;9.096;2023-05-20T10:57:24;7.27;;;4.83;;
479;SDS011;226;48.606;9.096;2023-05-20T10:59:53;7.50;;;5.23;;
479;SDS011;226;48.606;9.096;2023-05-20T11:02:22;10.13;;;4.80;;
479;SDS011;226;48.606;9.096;2023-05-20T11:04:56;6.90;;;4.63;;
479;SDS011;226;48.606;9.096;2023-05-20T11:07:25;8.77;;;5.57;;
479;SDS011;226;48.606;9.096;2023-05-20T11:09:54;10.73;;;5.03;;
479;SDS011;226;48.606;9.096;2023-05-20T11:12:23;5.43;;;4.00;;
479;SDS011;226;48.606;9.096;2023-05-20T11:14:51;5.03;;;4.10;;
479;SDS011;226;48.606;9.096;2023-05-20T11:17:20;5.33;;;4.07;;
479;SDS011;226;48.606;9.096;2023-05-20T11:19:49;4.97;;;4.30;;
479;SDS011;226;48.606;9.096;2023-05-20T11:22:19;4.00;;;3.60;;
479;SDS011;226;48.606;9.096;2023-05-20T11:24:48;5.47;;;3.97;;
479;SDS011;226;48.606;9.096;2023-05-20T11:27:16;3.87;;;3.17;;
479;SDS011;226;48.606;9.096;2023-05-20T11:29:47;6.37;;;4.30;;
479;SDS011;226;48.606;9.096;2023-05-20T11:32:18;8.23;;;3.90;;
479;SDS011;226;48.606;9.096;2023-05-20T11:34:49;7.63;;;4.10;;
479;SDS011;226;48.606;9.096;2023-05-20T11:37:20;4.17;;;3.63;;
479;SDS011;226;48.606;9.096;2023-05-20T11:40:01;3.80;;;3.27;;
479;SDS011;226;48.606;9.096;2023-05-20T11:42:33;5.60;;;4.07;;
479;SDS011;226;48.606;9.096;2023-05-20T11:45:02;5.73;;;3.80;;
479;SDS011;226;48.606;9.096;2023-05-20T11:47:30;5.93;;;3.93;;
479;SDS011;226;48.606;9.096;2023-05-20T11:49:59;6.27;;;4.40;;
479;SDS011;226;48.606;9.096;2023-05-20T11:52:29;5.93;;;4.20;;
479;SDS011;226;48.606;9.096;2023-05-20T11:55:00;4.90;;;3.93;;
479;SDS011;226;48.606;9.096;2023-05-20T11:57:29;5.57;;;5.03;;
479;SDS011;226;48.606;9.096;2023-05-20T11:59:58;5.63;;;3.53;;
479;SDS011;226;48.606;9.096;2023-05-20T12:02:26;4.73;;;3.40;;
479;SDS011;226;48.606;9.096;2023-05-20T12:04:55;4.73;;;4.13;;
479;SDS011;226;48.606;9.096;2023-05-20T12:07:24;5.73;;;4.20;;
479;SDS011;226;48.606;9.096;2023-05-20T12:09:55;6.07;;;3.30;;
479;SDS011;226;48.606;9.096;2023-05-20T12:12:23;8.17;;;4.63;;
479;SDS011;226;48.606;9.096;2023-05-20T12:14:52;5.37;;;4.10;;
479;SDS011;226;48.606;9.096;2023-05-20T12:17:20;5.20;;;3.80;;
479;SDS011;226;48.606;9.096;2023-05-20T12:19:49;7.13;;;4.30;;
479;SDS011;226;48.606;9.096;2023-05-20T12:22:17;4.90;;;3.90;;
479;SDS011;226;48.606;9.096;2023-05-20T12:24:46;5.53;;;4.13;;
479;SDS011;226;48.606;9.096;2023-05-20T12:27:16;5.03;;;4.07;;
479;SDS011;226;48.606;9.096;2023-05-20T12:29:44;5.43;;;3.33;;
479;SDS011;226;48.606;9.096;2023-05-20T12:32:13;6.70;;;3.90;;
479;SDS011;226;48.606;9.096;2023-05-20T12:34:41;4.30;;;3.90;;
479;SDS011;226;48.606;9.096;2023-05-20T12:37:10;4.00;;;3.10;;
479;SDS011;226;48.606;9.096;2023-05-20T12:39:38;5.70;;;4.03;;
479;SDS011;226;48.606;9.096;2023-05-20T12:42:07;5.93;;;3.90;;
479;SDS011;226;48.606;9.096;2023-05-20T12:44:38;6.47;;;3.57;;
479;SDS011;226;48.606;9.096;2023-05-20T12:47:07;4.67;;;3.60;;
479;SDS011;226;48.606;9.096;2023-05-20T12:49:36;4.83;;;3.60;;
479;SDS011;226;48.606;9.096;2023-05-20T12:52:05;4.67;;;3.73;;
479;SDS011;226;48.606;9.096;2023-05-20T12:54:47;3.50;;;3.00;;
479;SDS011;226;48.606;9.096;2023-05-20T12:57:15;5.60;;;3.93;;
479;SDS011;226;48.606;9.096;2023-05-20T12:59:45;4.80;;;3.43;;
479;SDS011;226;48.606;9.096;2023-05-20T13:02:14;9.73;;;5.57;;
479;SDS011;226;48.606;9.096;2023-05-20T13:04:43;3.90;;;3.20;;
479;SDS011;226;48.606;9.096;2023-05-20T13:07:11;12.23;;;5.40;;
479;SDS011;226;48.606;9.096;2023-05-20T13:09:40;4.70;;;3.70;;
479;SDS011;226;48.606;9.096;2023-05-20T13:12:08;6.27;;;3.60;;
479;SDS011;226;48.606;9.096;2023-05-20T13:14:37;7.00;;;3.67;;
479;SDS011;226;48.606;9.096;2023-05-20T13:17:08;4.80;;;3.10;;
479;SDS011;226;48.606;9.096;2023-05-20T13:19:36;4.50;;;3.40;;
479;SDS011;226;48.606;9.096;2023-05-20T13:22:05;8.10;;;4.20;;
479;SDS011;226;48.606;9.096;2023-05-20T13:24:34;9.03;;;3.60;;
479;SDS011;226;48.606;9.096;2023-05-20T13:27:03;5.80;;;3.07;;
479;SDS011;226;48.606;9.096;2023-05-20T13:29:31;7.83;;;4.00;;
479;SDS011;226;48.606;9.096;2023-05-20T13:32:00;5.63;;;3.53;;
479;SDS011;226;48.606;9.096;2023-05-20T13:34:29;4.43;;;3.83;;
479;SDS011;226;48.606;9.096;2023-05-20T13:36:58;6.30;;;4.00;;
479;SDS011;226;48.606;9.096;2023-05-20T13:39:26;3.50;;;3.20;;
479;SDS011;226;48.606;9.096;2023-05-20T13:41:55;4.90;;;3.40;;
479;SDS011;226;48.606;9.096;2023-05-20T13:44:24;4.70;;;3.57;;
479;SDS011;226;48.606;9.096;2023-05-20T13:46:52;4.27;;;3.30;;
479;SDS011;226;48.606;9.096;2023-05-20T13:49:21;6.57;;;3.47;;
479;SDS011;226;48.606;9.096;2023-05-20T13:51:52;4.83;;;3.90;;
479;SDS011;226;48.606;9.096;2023-05-20T13:54:20;4.23;;;3.83;;
479;SDS011;226;48.606;9.096;2023-05-20T13:56:49;3.90;;;3.10;;
479;SDS011;226;48.606;9.096;2023-05-20T13:59:18;4.17;;;2.90;;
479;SDS011;226;48.606;9.096;2023-05-20T14:01:46;10.37;;;2.93;;
479;SDS011;226;48.606;9.096;2023-05-20T14:04:15;5.07;;;2.97;;
479;SDS011;226;48.606;9.096;2023-05-20T14:06:43;3.87;;;3.00;;
479;SDS011;226;48.606;9.096;2023-05-20T14:09:13;4.13;;;3.57;;
479;SDS011;226;48.606;9.096;2023-05-20T14:11:42;5.00;;;3.03;;
479;SDS011;226;48.606;9.096;2023-05-20T14:14:10;4.27;;;3.10;;
479;SDS011;226;48.606;9.096;2023-05-20T14:16:39;4.77;;;2.97;;
479;SDS011;226;48.606;9.096;2023-05-20T14:19:07;4.40;;;3.00;;
479;SDS011;226;48.606;9.096;2023-05-20T14:21:36;3.37;;;2.87;;
479;SDS011;226;48.606;9.096;2023-05-20T14:24:05;4.63;;;2.87;;
479;SDS011;226;48.606;9.096;2023-05-20T14:26:35;4.83;;;3.30;;
479;SDS011;226;48.606;9.096;2023-05-20T14:29:03;3.50;;;3.20;;
479;SDS011;226;48.606;9.096;2023-05-20T14:31:32;4.97;;;3.67;;
479;SDS011;226;48.606;9.096;2023-05-20T14:34:01;2.87;;;2.60;;
479;SDS011;226;48.606;9.096;2023-05-20T14:36:29;3.93;;;2.77;;
479;SDS011;226;48.606;9.096;2023-05-20T14:38:57;4.23;;;2.93;;
479;SDS011;226;48.606;9.096;2023-05-20T14:41:26;6.90;;;3.80;;
479;SDS011;226;48.606;9.096;2023-05-20T14:43:56;8.73;;;3.20;;
479;SDS011;226;48.606;9.096;2023-05-20T14:46:25;4.43;;;3.50;;
479;SDS011;226;48.606;9.096;2023-05-20T14:48:53;4.20;;;3.17;;
479;SDS011;226;48.606;9.096;2023-05-20T14:51:22;4.10;;;2.63;;
479;SDS011;226;48.606;9.096;2023-05-20T14:53:50;3.23;;;2.93;;
479;SDS011;226;48.606;9.096;2023-05-20T14:56:19;2.83;;;2.63;;
479;SDS011;226;48.606;9.096;2023-05-20T14:58:48;4.33;;;2.63;;
479;SDS011;226;48.606;9.096;2023-05-20T15:01:18;3.30;;;3.00;;
479;SDS011;226;48.606;9.096;2023-05-20T15:03:46;3.50;;;2.53;;
479;SDS011;226;48.606;9.096;2023-05-20T15:06:15;4.63;;;2.80;;
479;SDS011;226;48.606;9.096;2023-05-20T15:08:43;3.93;;;3.03;;
479;SDS011;226;48.606;9.096;2023-05-20T15:11:12;4.57;;;3.40;;
479;SDS011;226;48.606;9.096;2023-05-20T15:13:40;2.80;;;2.40;;
479;SDS011;226;48.606;9.096;2023-05-20T15:16:09;3.30;;;3.00;;
479;SDS011;226;48.606;9.096;2023-05-20T15:18:39;3.20;;;2.90;;
479;SDS011;226;48.606;9.096;2023-05-20T15:21:07;4.50;;;2.63;;
479;SDS011;226;48.606;9.096;2023-05-20T15:23:36;5.90;;;2.77;;
479;SDS011;226;48.606;9.096;2023-05-20T15:26:04;3.80;;;3.00;;
479;SDS011;226;48.606;9.096;2023-05-20T15:28:33;3.17;;;2.90;;
479;SDS011;226;48.606;9.096;2023-05-20T15:31:01;2.87;;;2.67;;
479;SDS011;226;48.606;9.096;2023-05-20T15:33:30;3.53;;;3.20;;
479;SDS011;226;48.606;9.096;2023-05-20T15:36:00;4.10;;;2.43;;
479;SDS011;226;48.606;9.096;2023-05-20T15:38:28;5.80;;;3.07;;
479;SDS011;226;48.606;9.096;2023-05-20T15:40:57;2.97;;;2.67;;
479;SDS011;226;48.606;9.096;2023-05-20T15:43:26;5.40;;;2.20;;
479;SDS011;226;48.606;9.096;2023-05-20T15:45:54;3.03;;;2.73;;
479;SDS011;226;48.606;9.096;2023-05-20T15:48:23;3.33;;;2.90;;
479;SDS011;226;48.606;9.096;2023-05-20T15:50:51;2.93;;;2.63;;
479;SDS011;226;48.606;9.096;2023-05-20T15:53:21;3.00;;;2.30;;
479;SDS011;226;48.606;9.096;2023-05-20T15:55:50;4.43;;;2.80;;
479;SDS011;226;48.606;9.096;2023-05-20T15:58:19;3.07;;;2.77;;